Time;durP1;ratioP1;P1;durP2;ratioP2;P2;SDS_P1;SDS_P2;PMS_P1;PMS_P2;Temp;Humidity;BMP_temperature;BMP_pressure;BME280_temperature;BME280_humidity;BME280_pressure;Samples;Min_cycle;Max_cycle;Signal;HPM_P1;HPM_P2
2021/03/30 00:01:55;;;;;;;22.37;17.20;;;12.50;99.90;;;;;;4993557;28;20645;-66
2021/03/30 00:04:30;;;;;;;25.17;17.20;;;12.40;99.90;;;;;;4997274;28;20644;-64
2021/03/30 00:07:18;;;;;;;21.37;16.47;;;12.40;99.90;;;;;;4995587;28;20638;-64
2021/03/30 00:09:56;;;;;;;22.90;17.10;;;12.40;99.90;;;;;;4992075;28;20633;-65
2021/03/30 00:12:28;;;;;;;21.63;16.20;;;12.40;99.90;;;;;;4997210;28;20859;-63
2021/03/30 00:15:07;;;;;;;24.13;17.37;;;12.40;99.90;;;;;;4998309;28;20590;-65
2021/03/30 00:18:00;;;;;;;21.87;15.80;;;12.40;99.90;;;;;;4995046;28;20899;-64
2021/03/30 00:20:28;;;;;;;21.47;15.83;;;12.40;99.90;;;;;;4997145;28;21476;-63
2021/03/30 00:22:58;;;;;;;17.27;14.80;;;12.40;99.90;;;;;;4996707;28;21484;-65
2021/03/30 00:25:24;;;;;;;17.60;15.00;;;12.30;99.90;;;;;;4996914;28;21337;-65
2021/03/30 00:28:00;;;;;;;18.80;15.23;;;12.30;99.90;;;;;;4994690;28;21747;-64
2021/03/30 00:30:28;;;;;;;18.67;14.70;;;12.30;99.90;;;;;;4997133;28;20714;-63
2021/03/30 00:33:02;;;;;;;19.10;14.70;;;12.30;99.90;;;;;;4994517;28;20653;-64
2021/03/30 00:35:32;;;;;;;19.40;14.80;;;12.20;99.90;;;;;;4994556;28;20980;-64
2021/03/30 00:38:00;;;;;;;17.70;14.43;;;12.20;99.90;;;;;;4994408;28;20639;-65
2021/03/30 00:40:33;;;;;;;18.70;13.90;;;12.30;99.90;;;;;;4999019;28;21199;-65
2021/03/30 00:43:01;;;;;;;17.30;12.93;;;12.30;99.90;;;;;;4996012;28;21297;-64
2021/03/30 00:45:37;;;;;;;22.27;12.87;;;12.30;99.90;;;;;;4994270;28;20673;-65
2021/03/30 00:48:05;;;;;;;17.03;11.97;;;12.30;99.90;;;;;;4999894;28;20618;-65
2021/03/30 00:50:34;;;;;;;14.97;11.93;;;12.30;99.90;;;;;;4999322;28;21245;-65
2021/03/30 00:53:06;;;;;;;16.73;12.90;;;12.30;99.90;;;;;;4997136;28;20642;-64
2021/03/30 00:55:34;;;;;;;17.03;11.40;;;12.30;99.90;;;;;;4994060;28;20722;-66
2021/03/30 00:58:09;;;;;;;16.43;10.90;;;12.20;99.90;;;;;;4997416;28;21234;-66
2021/03/30 01:00:46;;;;;;;14.37;11.40;;;12.20;99.90;;;;;;4996130;28;20649;-63
2021/03/30 01:03:17;;;;;;;18.17;11.30;;;12.10;99.90;;;;;;4995534;28;20646;-65
2021/03/30 01:05:47;;;;;;;13.40;10.33;;;12.20;99.90;;;;;;4996098;28;20657;-61
2021/03/30 01:08:51;;;;;;;16.10;11.60;;;12.20;99.90;;;;;;4994864;28;20614;-60
2021/03/30 01:11:40;;;;;;;17.20;10.90;;;12.10;99.90;;;;;;4973702;28;20685;-60
2021/03/30 01:14:43;;;;;;;13.30;10.37;;;12.10;99.90;;;;;;4996799;28;20665;-61
2021/03/30 01:17:40;;;;;;;15.07;10.17;;;12.20;99.90;;;;;;4993319;28;20679;-60
2021/03/30 01:20:24;;;;;;;13.47;9.83;;;12.20;99.90;;;;;;5003223;28;21045;-60
2021/03/30 01:23:08;;;;;;;13.90;9.80;;;12.20;99.90;;;;;;5000195;28;21487;-63
2021/03/30 01:25:40;;;;;;;10.97;9.63;;;12.10;99.90;;;;;;4995414;28;20641;-62
2021/03/30 01:28:26;;;;;;;13.57;10.00;;;12.10;99.90;;;;;;5002084;28;21367;-64
2021/03/30 01:30:56;;;;;;;12.27;9.10;;;12.10;99.90;;;;;;5002535;28;20651;-62
2021/03/30 01:33:29;;;;;;;16.30;11.00;;;12.10;99.90;;;;;;4995095;28;20902;-62
2021/03/30 01:35:58;;;;;;;16.13;10.50;;;12.00;99.90;;;;;;4998522;28;20737;-65
2021/03/30 01:38:32;;;;;;;12.37;10.00;;;12.00;99.90;;;;;;5002190;28;20884;-64
2021/03/30 01:41:03;;;;;;;12.03;10.77;;;12.00;99.90;;;;;;5004068;28;20679;-64
2021/03/30 01:43:32;;;;;;;15.83;10.83;;;12.00;99.90;;;;;;4992082;28;21254;-64
2021/03/30 01:46:03;;;;;;;16.30;10.60;;;11.90;99.90;;;;;;4995479;28;20900;-63
2021/03/30 01:48:33;;;;;;;15.57;11.13;;;11.90;99.90;;;;;;4999797;28;20586;-65
2021/03/30 01:51:05;;;;;;;18.67;11.37;;;11.90;99.90;;;;;;5000573;28;22729;-64
2021/03/30 01:53:41;;;;;;;13.77;10.70;;;12.00;99.90;;;;;;5003054;28;20678;-65
2021/03/30 01:56:10;;;;;;;13.90;10.60;;;11.90;99.90;;;;;;4997526;28;20655;-63
2021/03/30 01:58:42;;;;;;;13.27;10.73;;;11.90;99.90;;;;;;5001753;28;21219;-66
2021/03/30 02:01:16;;;;;;;16.33;11.30;;;11.90;99.90;;;;;;4999177;28;21026;-65
2021/03/30 02:03:56;;;;;;;14.80;11.20;;;11.90;99.90;;;;;;5003660;28;20642;-65
2021/03/30 02:06:25;;;;;;;14.50;10.37;;;11.90;99.90;;;;;;5014163;28;20721;-63
2021/03/30 02:09:00;;;;;;;14.37;10.77;;;12.00;99.90;;;;;;5003257;28;20757;-65
2021/03/30 02:11:36;;;;;;;14.00;10.23;;;11.90;99.90;;;;;;5002035;28;20688;-64
2021/03/30 02:14:06;;;;;;;14.93;11.73;;;12.00;99.90;;;;;;5001590;28;21354;-62
2021/03/30 02:17:12;;;;;;;13.37;10.53;;;11.90;99.90;;;;;;4998832;28;20677;-60
2021/03/30 02:19:52;;;;;;;15.87;10.90;;;11.90;99.90;;;;;;4998067;28;20844;-61
2021/03/30 02:22:48;;;;;;;16.37;11.60;;;11.90;99.90;;;;;;5001874;28;20649;-61
2021/03/30 02:25:19;;;;;;;16.37;11.27;;;11.90;99.90;;;;;;5016062;28;20631;-61
2021/03/30 02:27:55;;;;;;;15.43;11.30;;;11.90;99.90;;;;;;4994842;28;20623;-61
2021/03/30 02:30:31;;;;;;;15.60;10.50;;;11.90;99.90;;;;;;5001792;28;20616;-61
2021/03/30 02:33:07;;;;;;;12.43;9.67;;;11.80;99.90;;;;;;4999668;28;21177;-61
2021/03/30 02:35:45;;;;;;;16.83;10.10;;;11.90;99.90;;;;;;5000909;28;22163;-61
2021/03/30 02:38:21;;;;;;;12.90;10.10;;;11.60;99.90;;;;;;4999138;28;20622;-61
2021/03/30 02:40:57;;;;;;;14.13;10.07;;;11.80;99.90;;;;;;5008901;28;20622;-61
2021/03/30 02:43:37;;;;;;;13.30;10.00;;;11.80;99.90;;;;;;4996308;28;20727;-59
2021/03/30 02:46:15;;;;;;;16.70;10.53;;;11.70;99.90;;;;;;4997402;28;21701;-59
2021/03/30 02:48:43;;;;;;;13.23;9.43;;;11.70;99.90;;;;;;4999872;28;21190;-60
2021/03/30 02:51:22;;;;;;;12.77;9.60;;;11.60;99.90;;;;;;4999254;28;20620;-59
2021/03/30 02:54:07;;;;;;;14.33;8.90;;;11.60;99.90;;;;;;5003291;28;20668;-59
2021/03/30 02:56:37;;;;;;;11.80;8.73;;;11.60;99.90;;;;;;4996053;28;20716;-59
2021/03/30 02:59:25;;;;;;;10.40;8.40;;;11.60;99.90;;;;;;5000741;28;21169;-63
2021/03/30 03:02:07;;;;;;;11.90;7.70;;;11.50;99.90;;;;;;4992969;28;20711;-63
2021/03/30 03:04:40;;;;;;;14.23;7.40;;;11.60;99.90;;;;;;4998404;28;20614;-64
2021/03/30 03:07:08;;;;;;;9.50;7.50;;;11.60;99.90;;;;;;4999619;28;20728;-63
2021/03/30 03:12:42;;;;;;;12.50;7.43;;;11.60;99.90;;;;;;4995465;28;20650;-63
2021/03/30 03:15:14;;;;;;;10.83;7.23;;;11.50;99.90;;;;;;4999575;28;21390;-62
2021/03/30 03:17:53;;;;;;;11.33;7.40;;;11.60;99.90;;;;;;4999578;28;21196;-63
2021/03/30 03:20:20;;;;;;;16.60;8.67;;;11.50;99.90;;;;;;4999436;28;20688;-63
2021/03/30 03:22:53;;;;;;;12.60;7.97;;;11.50;99.90;;;;;;4992195;28;20662;-66
2021/03/30 03:25:22;;;;;;;13.00;7.77;;;11.40;99.90;;;;;;4996357;28;20621;-63
2021/03/30 03:27:51;;;;;;;13.43;7.23;;;11.40;99.90;;;;;;4997495;28;21933;-66
2021/03/30 03:30:17;;;;;;;10.50;6.93;;;11.40;99.90;;;;;;5001008;28;21073;-63
2021/03/30 03:32:50;;;;;;;12.70;7.83;;;11.40;99.90;;;;;;4998798;28;20776;-63
2021/03/30 03:35:37;;;;;;;12.80;7.53;;;11.40;99.90;;;;;;4996240;28;21282;-62
2021/03/30 03:38:13;;;;;;;11.70;8.80;;;11.40;99.90;;;;;;4998210;28;20750;-63
2021/03/30 03:41:09;;;;;;;12.67;7.73;;;11.50;99.90;;;;;;5000408;28;21279;-62
2021/03/30 03:43:37;;;;;;;13.07;7.37;;;11.50;99.90;;;;;;5002442;28;20818;-65
2021/03/30 03:46:13;;;;;;;9.93;7.43;;;11.50;99.90;;;;;;4994394;28;20712;-65
2021/03/30 03:48:38;;;;;;;10.40;7.80;;;11.40;99.90;;;;;;5010669;28;21433;-65
2021/03/30 03:51:13;;;;;;;9.63;6.77;;;11.40;99.90;;;;;;4994839;28;20622;-66
2021/03/30 03:53:44;;;;;;;11.33;7.60;;;11.30;99.90;;;;;;4999269;28;20211;-63
2021/03/30 03:56:21;;;;;;;11.57;7.60;;;11.40;99.90;;;;;;4996101;28;20681;-63
2021/03/30 03:58:52;;;;;;;11.70;7.33;;;11.40;99.90;;;;;;4996816;28;20961;-64
2021/03/30 04:01:32;;;;;;;11.93;7.13;;;11.30;99.90;;;;;;4998842;28;20612;-63
2021/03/30 04:04:17;;;;;;;11.40;8.00;;;11.30;99.90;;;;;;5000711;28;22035;-62
2021/03/30 04:07:04;;;;;;;10.17;7.10;;;11.30;99.90;;;;;;4999036;28;20691;-63
2021/03/30 04:09:47;;;;;;;9.90;6.80;;;11.30;99.90;;;;;;4998147;28;20623;-63
2021/03/30 04:12:30;;;;;;;9.07;7.77;;;11.30;99.90;;;;;;4999131;28;20653;-63
2021/03/30 04:15:04;;;;;;;9.50;7.50;;;11.20;99.90;;;;;;4994435;28;20712;-63
2021/03/30 04:17:44;;;;;;;13.00;8.20;;;11.00;99.90;;;;;;5000039;28;20633;-65
2021/03/30 04:20:24;;;;;;;12.40;8.10;;;11.10;99.90;;;;;;4999271;28;20735;-59
2021/03/30 04:22:59;;;;;;;12.60;7.70;;;11.10;99.90;;;;;;4995710;28;22232;-58
2021/03/30 04:25:28;;;;;;;8.23;7.30;;;11.10;99.90;;;;;;4998153;28;20656;-60
2021/03/30 04:28:04;;;;;;;10.70;7.67;;;11.10;99.90;;;;;;5001699;28;20618;-59
2021/03/30 04:30:35;;;;;;;11.80;8.47;;;11.10;99.90;;;;;;4998546;28;20599;-61
2021/03/30 04:33:03;;;;;;;11.70;7.70;;;11.00;99.90;;;;;;4994999;28;20649;-63
2021/03/30 04:35:46;;;;;;;9.67;7.70;;;11.00;99.90;;;;;;4995121;28;20637;-64
2021/03/30 04:38:16;;;;;;;9.73;8.20;;;10.90;99.90;;;;;;4997802;28;20954;-63
2021/03/30 04:40:51;;;;;;;10.47;8.27;;;10.90;99.90;;;;;;4997218;28;20638;-64
2021/03/30 04:43:22;;;;;;;10.90;7.97;;;10.90;99.90;;;;;;5004896;28;21023;-62
2021/03/30 04:45:52;;;;;;;12.83;7.87;;;11.00;99.90;;;;;;4993468;28;20661;-64
2021/03/30 04:48:32;;;;;;;9.30;8.37;;;11.00;99.90;;;;;;4992376;28;20676;-65
2021/03/30 04:51:08;;;;;;;10.13;7.23;;;10.80;99.90;;;;;;4994503;28;20637;-64
2021/03/30 04:53:51;;;;;;;12.00;8.60;;;10.80;99.90;;;;;;5001661;28;20757;-63
2021/03/30 04:56:24;;;;;;;12.77;8.67;;;10.80;99.90;;;;;;5000432;28;21086;-64
2021/03/30 04:58:50;;;;;;;11.27;8.80;;;10.80;99.90;;;;;;5002607;28;20706;-65
2021/03/30 05:01:18;;;;;;;13.07;9.13;;;10.70;99.90;;;;;;4999449;28;21168;-65
2021/03/30 05:03:50;;;;;;;9.93;8.40;;;10.70;99.90;;;;;;4996501;28;20214;-65
2021/03/30 05:06:21;;;;;;;12.40;8.77;;;10.70;99.90;;;;;;4993685;28;20635;-61
2021/03/30 05:08:52;;;;;;;13.43;9.07;;;10.80;99.90;;;;;;5003008;28;20724;-62
2021/03/30 05:11:17;;;;;;;13.30;9.90;;;10.70;99.90;;;;;;4994633;28;21508;-59
2021/03/30 05:13:43;;;;;;;13.67;9.37;;;10.80;99.90;;;;;;4989266;28;22784;-61
2021/03/30 05:16:09;;;;;;;15.00;10.43;;;10.80;99.90;;;;;;4984315;28;20552;-61
2021/03/30 05:18:34;;;;;;;17.27;9.97;;;10.80;99.90;;;;;;4990328;28;23468;-61
2021/03/30 05:21:00;;;;;;;12.27;9.90;;;10.80;99.90;;;;;;4988234;28;20212;-58
2021/03/30 05:23:26;;;;;;;16.40;10.60;;;10.80;99.90;;;;;;4990616;28;20208;-60
2021/03/30 05:25:56;;;;;;;11.80;10.07;;;10.80;99.90;;;;;;4993158;28;20241;-61
2021/03/30 05:28:22;;;;;;;11.87;10.00;;;10.80;99.90;;;;;;5007385;28;20262;-59
2021/03/30 05:30:51;;;;;;;15.90;11.03;;;10.80;99.90;;;;;;4991248;28;20645;-60
2021/03/30 05:33:16;;;;;;;15.70;11.23;;;10.90;99.90;;;;;;4990461;28;20236;-60
2021/03/30 05:35:42;;;;;;;16.90;11.50;;;11.00;99.90;;;;;;4992010;28;20972;-60
2021/03/30 05:38:08;;;;;;;16.00;11.30;;;11.00;99.90;;;;;;4998598;28;20309;-62
2021/03/30 05:40:34;;;;;;;16.40;11.33;;;11.00;99.90;;;;;;4991599;28;20184;-60
2021/03/30 05:43:01;;;;;;;15.00;11.90;;;11.10;99.90;;;;;;4991362;28;21461;-63
2021/03/30 05:45:27;;;;;;;13.03;11.67;;;11.10;99.90;;;;;;4982264;28;20594;-60
2021/03/30 05:47:54;;;;;;;14.20;11.60;;;11.20;99.90;;;;;;4979624;28;20622;-60
2021/03/30 05:50:22;;;;;;;22.37;11.80;;;11.10;99.90;;;;;;4984719;28;20223;-61
2021/03/30 05:55:29;;;;;;;14.93;12.10;;;11.20;99.90;;;;;;4980347;28;20614;-60
2021/03/30 05:57:58;;;;;;;18.00;12.60;;;11.20;99.90;;;;;;4983113;28;20614;-59
2021/03/30 06:00:27;;;;;;;18.80;12.50;;;11.20;99.90;;;;;;4984788;28;20712;-61
2021/03/30 06:02:55;;;;;;;19.53;13.27;;;11.30;99.90;;;;;;4974472;28;20664;-59
2021/03/30 06:05:22;;;;;;;17.80;13.13;;;11.30;99.90;;;;;;4970694;28;20662;-58
2021/03/30 06:07:48;;;;;;;17.50;14.17;;;11.40;99.90;;;;;;4978674;28;21214;-61
2021/03/30 06:10:16;;;;;;;19.77;12.77;;;11.40;99.90;;;;;;4981878;28;20745;-59
2021/03/30 06:12:43;;;;;;;17.53;13.03;;;11.40;99.90;;;;;;4981220;28;20654;-61
2021/03/30 06:15:10;;;;;;;16.23;13.63;;;11.40;99.90;;;;;;4983048;28;21340;-61
2021/03/30 06:17:45;;;;;;;17.40;13.57;;;11.50;99.90;;;;;;4986955;28;20629;-61
2021/03/30 06:20:13;;;;;;;15.83;12.87;;;11.60;99.90;;;;;;4993118;28;20646;-61
2021/03/30 06:22:50;;;;;;;19.87;13.43;;;11.60;99.90;;;;;;4983587;28;20697;-61
2021/03/30 06:25:41;;;;;;;18.03;14.60;;;11.60;99.90;;;;;;4991463;28;20621;-61
2021/03/30 06:28:21;;;;;;;17.43;12.90;;;11.60;99.90;;;;;;4999427;28;20609;-61
2021/03/30 06:30:59;;;;;;;14.80;13.30;;;11.70;99.90;;;;;;5001704;28;20614;-62
2021/03/30 06:33:25;;;;;;;19.57;14.57;;;11.70;99.90;;;;;;4983276;28;23783;-58
2021/03/30 06:35:52;;;;;;;19.10;14.30;;;11.70;99.90;;;;;;4988365;28;20974;-60
2021/03/30 06:38:17;;;;;;;17.43;13.70;;;11.70;99.90;;;;;;4991046;28;20673;-60
2021/03/30 06:40:46;;;;;;;16.10;14.33;;;11.90;99.90;;;;;;4991319;28;21047;-60
2021/03/30 06:46:09;;;;;;;16.33;13.40;;;11.90;99.90;;;;;;4983939;28;21087;-60
2021/03/30 06:48:37;;;;;;;18.63;15.30;;;12.00;99.90;;;;;;4987080;28;21872;-60
2021/03/30 06:51:20;;;;;;;16.20;13.20;;;12.10;99.90;;;;;;4981945;28;20619;-61
2021/03/30 06:53:46;;;;;;;16.80;14.07;;;12.10;99.90;;;;;;4989092;28;20666;-62
2021/03/30 06:56:11;;;;;;;17.47;13.90;;;12.20;99.90;;;;;;4986332;28;20844;-65
2021/03/30 06:58:59;;;;;;;16.13;12.73;;;12.20;99.90;;;;;;5000187;28;20286;-65
2021/03/30 07:01:28;;;;;;;21.00;13.90;;;12.10;99.90;;;;;;4988826;28;20231;-62
2021/03/30 07:03:56;;;;;;;15.43;12.87;;;12.20;99.90;;;;;;4982952;28;20638;-65
2021/03/30 07:06:24;;;;;;;19.40;13.97;;;12.30;99.90;;;;;;4981939;28;20610;-64
2021/03/30 07:08:50;;;;;;;17.27;13.13;;;12.30;99.90;;;;;;4982549;28;20618;-66
2021/03/30 07:11:17;;;;;;;16.27;12.53;;;12.30;99.90;;;;;;4977358;28;21249;-65
2021/03/30 07:13:43;;;;;;;19.80;13.37;;;12.30;99.90;;;;;;4995252;28;21442;-60
2021/03/30 07:16:23;;;;;;;16.07;12.40;;;12.50;99.90;;;;;;4981209;28;20626;-65
2021/03/30 07:18:56;;;;;;;15.00;12.10;;;12.50;99.90;;;;;;4984905;28;20625;-63
2021/03/30 07:21:28;;;;;;;18.10;12.30;;;12.60;99.90;;;;;;4983040;28;21137;-64
2021/03/30 07:24:00;;;;;;;19.67;12.90;;;12.60;99.90;;;;;;4984259;28;20712;-65
2021/03/30 07:26:43;;;;;;;18.60;12.40;;;12.60;99.90;;;;;;4982710;28;21083;-66
2021/03/30 07:29:12;;;;;;;13.13;11.80;;;12.70;99.90;;;;;;4988556;28;20618;-66
2021/03/30 07:31:55;;;;;;;13.50;12.10;;;12.70;99.90;;;;;;4987662;28;21260;-65
2021/03/30 07:34:49;;;;;;;13.53;11.60;;;12.80;99.90;;;;;;4980163;28;21009;-65
2021/03/30 07:37:28;;;;;;;17.53;12.00;;;13.00;99.90;;;;;;4986754;28;22373;-63
2021/03/30 07:39:57;;;;;;;14.80;12.50;;;13.10;99.90;;;;;;4988000;28;20749;-66
2021/03/30 07:42:24;;;;;;;13.33;11.93;;;13.10;99.90;;;;;;4982417;28;21264;-64
2021/03/30 07:44:51;;;;;;;14.30;11.67;;;13.10;99.90;;;;;;4984951;28;20747;-65
2021/03/30 07:47:19;;;;;;;15.47;12.87;;;13.20;99.90;;;;;;4981413;28;20745;-63
2021/03/30 07:49:48;;;;;;;16.77;11.00;;;13.20;99.90;;;;;;4982664;28;20709;-64
2021/03/30 07:52:23;;;;;;;15.50;11.33;;;13.30;99.90;;;;;;4994233;28;20712;-64
2021/03/30 07:55:28;;;;;;;14.20;11.40;;;13.50;99.90;;;;;;4993588;28;21380;-65
2021/03/30 07:58:00;;;;;;;13.30;11.60;;;13.50;99.90;;;;;;4991805;28;20701;-64
2021/03/30 08:00:32;;;;;;;14.73;11.20;;;13.50;99.90;;;;;;4986362;28;20646;-66
2021/03/30 08:03:05;;;;;;;12.60;10.87;;;13.60;99.90;;;;;;4988693;28;20655;-65
2021/03/30 08:05:31;;;;;;;12.87;11.50;;;13.60;99.90;;;;;;4986733;28;20634;-65
2021/03/30 08:07:57;;;;;;;12.00;10.80;;;13.70;99.90;;;;;;4991615;28;20624;-64
2021/03/30 08:10:35;;;;;;;15.67;10.80;;;13.70;99.90;;;;;;4993674;28;20196;-65
2021/03/30 08:13:28;;;;;;;16.40;10.57;;;13.80;99.90;;;;;;4996938;28;21952;-64
2021/03/30 08:16:04;;;;;;;13.10;11.53;;;13.80;99.90;;;;;;4989022;28;20595;-66
2021/03/30 08:18:35;;;;;;;13.47;11.50;;;13.90;99.90;;;;;;4988964;28;20702;-65
2021/03/30 08:21:08;;;;;;;13.40;11.37;;;13.90;99.90;;;;;;4995624;28;20607;-64
2021/03/30 08:23:52;;;;;;;13.07;10.90;;;14.00;99.90;;;;;;4986620;28;20662;-66
2021/03/30 08:26:27;;;;;;;14.77;11.47;;;14.00;99.90;;;;;;4985552;28;21498;-64
2021/03/30 08:28:58;;;;;;;12.43;10.40;;;14.20;99.90;;;;;;4980444;28;21266;-64
2021/03/30 08:31:45;;;;;;;13.90;11.17;;;14.30;99.90;;;;;;4981536;28;21288;-65
2021/03/30 08:34:37;;;;;;;14.63;10.50;;;14.30;99.90;;;;;;4986649;28;20737;-64
2021/03/30 08:37:09;;;;;;;14.93;11.13;;;14.40;99.90;;;;;;4986215;28;20763;-64
2021/03/30 08:39:38;;;;;;;13.73;10.93;;;14.50;99.90;;;;;;4995275;28;21283;-64
2021/03/30 08:42:04;;;;;;;14.83;12.00;;;14.50;99.90;;;;;;4994055;28;20749;-64
2021/03/30 08:44:44;;;;;;;11.70;10.07;;;14.60;99.90;;;;;;4990729;28;23309;-61
2021/03/30 08:47:32;;;;;;;16.43;11.07;;;14.60;99.90;;;;;;4994240;28;20588;-60
2021/03/30 08:50:15;;;;;;;14.13;10.00;;;14.70;99.90;;;;;;4982128;28;20643;-61
2021/03/30 08:52:41;;;;;;;12.90;10.53;;;14.80;99.90;;;;;;4986965;28;20666;-61
2021/03/30 08:55:09;;;;;;;11.67;10.43;;;14.80;99.90;;;;;;5000891;28;20634;-61
2021/03/30 08:57:37;;;;;;;10.83;9.77;;;14.80;99.90;;;;;;5010042;28;20192;-61
2021/03/30 09:00:06;;;;;;;11.67;9.67;;;14.90;99.90;;;;;;5005501;28;20652;-61
2021/03/30 09:02:32;;;;;;;15.17;10.10;;;15.00;99.90;;;;;;5002445;28;21296;-61
2021/03/30 09:04:58;;;;;;;13.53;10.73;;;15.00;99.90;;;;;;4982672;28;20610;-62
2021/03/30 09:07:23;;;;;;;13.23;10.47;;;15.20;99.90;;;;;;5004123;28;20912;-61
2021/03/30 09:09:49;;;;;;;10.23;9.30;;;15.30;99.90;;;;;;4986258;28;20749;-61
2021/03/30 09:12:18;;;;;;;11.50;10.23;;;15.30;99.90;;;;;;4999360;28;20231;-61
2021/03/30 09:14:45;;;;;;;11.10;9.83;;;15.40;99.90;;;;;;4992130;28;22152;-61
2021/03/30 09:17:13;;;;;;;14.60;10.37;;;15.50;99.90;;;;;;4993100;28;20619;-60
2021/03/30 09:19:50;;;;;;;11.33;10.20;;;15.60;99.90;;;;;;4990265;28;20654;-61
2021/03/30 09:22:25;;;;;;;10.70;9.60;;;15.70;99.90;;;;;;4986107;28;20707;-61
2021/03/30 09:25:25;;;;;;;11.27;9.80;;;15.70;99.90;;;;;;4985372;28;20606;-61
2021/03/30 09:27:51;;;;;;;11.77;9.73;;;15.80;99.90;;;;;;4981808;28;21212;-61
2021/03/30 09:30:19;;;;;;;10.73;9.63;;;15.80;99.90;;;;;;4988218;28;22185;-61
2021/03/30 09:32:47;;;;;;;10.93;9.93;;;16.00;99.90;;;;;;4973825;28;20298;-61
2021/03/30 09:35:15;;;;;;;10.83;9.83;;;16.10;99.90;;;;;;4992676;28;20622;-61
2021/03/30 09:38:02;;;;;;;11.20;9.13;;;16.10;99.90;;;;;;4984511;28;20675;-61
2021/03/30 09:40:40;;;;;;;12.33;9.80;;;16.20;99.90;;;;;;4992181;28;20643;-62
2021/03/30 09:43:07;;;;;;;11.93;9.17;;;16.30;99.90;;;;;;4991591;28;20646;-61
2021/03/30 09:45:35;;;;;;;10.27;9.23;;;16.30;99.90;;;;;;4995386;28;20819;-62
2021/03/30 09:48:05;;;;;;;11.30;9.43;;;16.30;99.90;;;;;;4993434;28;20622;-61
2021/03/30 09:50:31;;;;;;;12.97;9.50;;;16.40;99.90;;;;;;4993106;28;20623;-61
2021/03/30 09:53:05;;;;;;;11.17;10.00;;;16.40;99.90;;;;;;4981854;28;21261;-61
2021/03/30 09:55:36;;;;;;;10.17;9.17;;;16.40;99.90;;;;;;4985115;28;20700;-61
2021/03/30 09:58:13;;;;;;;10.03;9.00;;;16.60;99.90;;;;;;5002161;28;21229;-65
2021/03/30 10:00:42;;;;;;;9.77;8.50;;;16.70;99.90;;;;;;5006603;28;20709;-64
2021/03/30 10:03:09;;;;;;;9.90;8.83;;;16.70;99.90;;;;;;4994301;28;20685;-66
2021/03/30 10:05:37;;;;;;;9.90;8.57;;;16.80;99.90;;;;;;4995742;28;21185;-63
2021/03/30 10:08:03;;;;;;;10.13;8.87;;;16.90;99.90;;;;;;4992751;28;20680;-66
2021/03/30 10:10:42;;;;;;;10.03;9.03;;;17.00;99.90;;;;;;4996011;28;21997;-64
2021/03/30 10:13:22;;;;;;;9.83;8.80;;;17.00;99.90;;;;;;5012152;28;20662;-64
2021/03/30 10:15:50;;;;;;;9.97;8.93;;;17.00;99.90;;;;;;4995054;28;21156;-66
2021/03/30 10:18:16;;;;;;;9.63;8.43;;;17.20;99.90;;;;;;5006675;28;20622;-64
2021/03/30 10:20:47;;;;;;;9.27;8.37;;;17.10;99.90;;;;;;5006803;28;20618;-65
2021/03/30 10:23:15;;;;;;;10.40;9.30;;;17.30;99.90;;;;;;4998212;28;20650;-64
2021/03/30 10:25:42;;;;;;;9.80;8.00;;;17.30;99.90;;;;;;4996673;28;21114;-64
2021/03/30 10:28:08;;;;;;;10.07;8.93;;;17.40;99.90;;;;;;4997568;28;20610;-63
2021/03/30 10:30:45;;;;;;;8.33;7.60;;;17.30;99.90;;;;;;5004308;28;22755;-65
2021/03/30 10:33:18;;;;;;;9.83;7.73;;;17.50;99.90;;;;;;4999380;28;20457;-65
2021/03/30 10:35:44;;;;;;;8.63;7.83;;;17.60;99.90;;;;;;5006264;28;20591;-65
2021/03/30 10:38:10;;;;;;;9.20;8.40;;;17.60;99.90;;;;;;5006851;28;20623;-64
2021/03/30 10:40:40;;;;;;;8.90;8.00;;;17.80;99.90;;;;;;5004752;28;20216;-63
2021/03/30 10:43:18;;;;;;;9.60;8.50;;;17.90;99.90;;;;;;5001731;28;20955;-64
2021/03/30 10:45:43;;;;;;;8.13;7.30;;;18.00;99.90;;;;;;5004408;28;21199;-64
2021/03/30 10:48:09;;;;;;;9.33;8.37;;;18.00;99.90;;;;;;5005545;28;20626;-65
2021/03/30 10:50:35;;;;;;;9.07;8.03;;;18.20;99.90;;;;;;4998668;28;20191;-65
2021/03/30 10:53:00;;;;;;;9.03;7.80;;;18.30;99.90;;;;;;4999604;28;20220;-63
2021/03/30 10:55:26;;;;;;;9.23;8.20;;;18.30;99.90;;;;;;4992691;28;20184;-63
2021/03/30 10:57:52;;;;;;;8.10;7.30;;;18.50;99.90;;;;;;5013620;28;20654;-65
2021/03/30 11:00:19;;;;;;;9.30;7.00;;;18.50;99.90;;;;;;4998122;28;21516;-63
2021/03/30 11:02:45;;;;;;;10.57;7.80;;;18.50;99.90;;;;;;5003952;28;20650;-64
2021/03/30 11:05:11;;;;;;;8.00;7.20;;;18.60;99.90;;;;;;5004016;28;20732;-63
2021/03/30 11:07:38;;;;;;;9.33;8.43;;;18.70;99.90;;;;;;5002278;28;20606;-64
2021/03/30 11:10:08;;;;;;;8.03;7.23;;;18.80;99.90;;;;;;4996135;28;20733;-64
2021/03/30 11:12:34;;;;;;;7.67;6.80;;;18.90;99.90;;;;;;5003414;28;20737;-64
2021/03/30 11:15:01;;;;;;;7.63;6.93;;;19.00;99.90;;;;;;5008332;28;20623;-63
2021/03/30 11:17:26;;;;;;;8.03;7.23;;;19.00;99.90;;;;;;5002989;28;21204;-65
2021/03/30 11:19:52;;;;;;;7.20;6.50;;;19.10;99.90;;;;;;4998007;28;20673;-65
2021/03/30 11:22:17;;;;;;;7.10;6.40;;;19.10;99.90;;;;;;4989679;28;20347;-66
2021/03/30 11:24:43;;;;;;;6.40;5.80;;;19.30;99.90;;;;;;4989421;28;20200;-64
2021/03/30 11:27:09;;;;;;;8.27;7.00;;;19.40;99.90;;;;;;4993487;28;20812;-64
2021/03/30 11:35:08;;;;;;;;;;;;;;;;;;;;;
2021/03/30 11:39:57;;;;;;;7.57;6.90;;;20.20;99.90;;;;;;4986921;28;21251;-64
2021/03/30 11:42:23;;;;;;;8.90;7.80;;;20.10;99.90;;;;;;5007396;28;20654;-65
2021/03/30 11:44:49;;;;;;;8.33;7.60;;;20.20;99.90;;;;;;4991567;28;21264;-65
2021/03/30 11:47:15;;;;;;;8.47;7.17;;;20.30;99.90;;;;;;4991287;28;20671;-63
2021/03/30 11:49:41;;;;;;;7.80;6.90;;;20.40;99.90;;;;;;4992278;28;20435;-65
2021/03/30 11:52:07;;;;;;;7.17;6.47;;;20.50;99.90;;;;;;5001224;28;20270;-65
2021/03/30 11:54:34;;;;;;;7.50;6.70;;;20.60;99.90;;;;;;5000543;28;20318;-63
2021/03/30 11:57:00;;;;;;;8.13;7.17;;;20.70;99.90;;;;;;5001549;28;21427;-65
2021/03/30 11:59:26;;;;;;;7.17;6.57;;;20.80;99.90;;;;;;5004258;28;23236;-65
2021/03/30 12:01:54;;;;;;;7.07;6.50;;;21.00;99.90;;;;;;4988179;28;21037;-64
2021/03/30 12:04:20;;;;;;;9.40;6.90;;;21.10;99.90;;;;;;4993012;28;20857;-64
2021/03/30 12:06:48;;;;;;;7.07;6.23;;;21.30;99.90;;;;;;4996338;28;20615;-65
2021/03/30 12:09:14;;;;;;;6.47;5.87;;;21.40;99.90;;;;;;4998659;28;20731;-63
2021/03/30 12:11:44;;;;;;;6.57;6.03;;;21.50;99.90;;;;;;4993993;28;20657;-64
2021/03/30 12:14:11;;;;;;;6.43;5.70;;;21.50;99.90;;;;;;4983706;28;21103;-64
2021/03/30 12:16:37;;;;;;;7.87;6.60;;;21.60;99.90;;;;;;4996354;28;21579;-64
2021/03/30 12:19:03;;;;;;;7.47;6.07;;;21.70;99.90;;;;;;4986813;28;21521;-64
2021/03/30 12:21:28;;;;;;;7.17;6.03;;;21.70;99.90;;;;;;4993113;28;20737;-65
2021/03/30 12:23:57;;;;;;;7.30;6.60;;;21.90;99.90;;;;;;4989270;28;20215;-67
2021/03/30 12:26:23;;;;;;;6.67;5.67;;;22.00;99.90;;;;;;4985054;28;20433;-65
2021/03/30 12:28:48;;;;;;;6.07;5.17;;;22.10;99.90;;;;;;4997799;28;21454;-66
2021/03/30 12:31:14;;;;;;;4.80;4.37;;;22.20;99.90;;;;;;4986584;28;20836;-66
2021/03/30 12:33:40;;;;;;;6.90;4.17;;;22.40;99.90;;;;;;4994274;28;21234;-66
2021/03/30 12:36:06;;;;;;;3.97;3.57;;;22.70;99.90;;;;;;4982216;28;20223;-66
2021/03/30 12:38:32;;;;;;;3.90;3.37;;;22.90;99.90;;;;;;4983577;28;20497;-65
2021/03/30 12:40:58;;;;;;;3.40;3.10;;;23.30;99.90;;;;;;4978167;28;21436;-66
2021/03/30 12:43:24;;;;;;;3.83;3.40;;;23.40;99.90;;;;;;4988207;28;20224;-64
2021/03/30 12:45:49;;;;;;;3.83;3.43;;;23.50;99.90;;;;;;4983158;28;20192;-66
2021/03/30 12:48:15;;;;;;;3.70;3.40;;;23.70;99.90;;;;;;4986152;28;20192;-66
2021/03/30 12:50:41;;;;;;;9.33;3.90;;;23.90;99.90;;;;;;4980783;28;20884;-64
2021/03/30 12:53:07;;;;;;;4.13;3.00;;;24.20;99.90;;;;;;4983319;28;20228;-65
2021/03/30 12:55:33;;;;;;;4.90;3.70;;;24.30;99.90;;;;;;4981418;28;20745;-66
2021/03/30 12:57:59;;;;;;;4.50;3.77;;;24.50;99.90;;;;;;4980633;28;20634;-64
2021/03/30 13:00:25;;;;;;;4.10;3.70;;;25.00;99.90;;;;;;4986105;28;20216;-65
2021/03/30 13:02:50;;;;;;;4.00;3.30;;;25.40;99.90;;;;;;4993854;28;20217;-66
2021/03/30 13:05:17;;;;;;;3.70;3.03;;;25.60;99.90;;;;;;4988722;28;20200;-65
2021/03/30 13:07:42;;;;;;;3.50;3.00;;;25.90;99.90;;;;;;4994492;28;20185;-65
2021/03/30 13:10:10;;;;;;;3.50;3.20;;;26.20;99.90;;;;;;4983891;28;20747;-65
2021/03/30 13:12:36;;;;;;;3.80;3.40;;;26.50;99.90;;;;;;4984618;28;20242;-64
2021/03/30 13:15:03;;;;;;;3.57;3.27;;;26.70;99.90;;;;;;4990037;28;20870;-66
2021/03/30 13:17:29;;;;;;;3.53;3.23;;;27.10;99.90;;;;;;4981604;28;20614;-66